createdAt,value
2019-04-05T00:00:17.769Z,9.37
2019-04-05T00:02:47.351Z,9.73
2019-04-05T00:05:17.254Z,11.03
2019-04-05T00:07:46.827Z,10.73
2019-04-05T00:10:16.844Z,9.60
2019-04-05T00:12:46.454Z,9.83
2019-04-05T00:15:16.320Z,10.53
2019-04-05T00:17:45.978Z,10.67
2019-04-05T00:20:16.695Z,9.57
2019-04-05T00:22:46.316Z,12.93
2019-04-05T00:25:15.877Z,10.20
2019-04-05T00:27:45.449Z,10.77
2019-04-05T00:30:16.368Z,9.30
2019-04-05T00:32:45.944Z,9.57
2019-04-05T00:35:15.529Z,9.20
2019-04-05T00:37:45.099Z,11.17
2019-04-05T00:40:15.390Z,9.77
2019-04-05T00:42:44.973Z,8.90
2019-04-05T00:45:27.149Z,9.10
2019-04-05T00:47:46.146Z,10.37
2019-04-05T00:50:15.945Z,9.47
2019-04-05T00:52:45.599Z,12.50
2019-04-05T00:55:15.184Z,9.23
2019-04-05T00:57:44.794Z,10.00
2019-04-05T01:00:14.690Z,10.67
2019-04-05T01:02:44.226Z,9.63
2019-04-05T01:05:13.966Z,10.47
2019-04-05T01:07:43.533Z,8.87
2019-04-05T01:10:13.579Z,10.37
2019-04-05T01:12:43.359Z,10.67
2019-04-05T01:15:14.525Z,11.03
2019-04-05T01:17:44.511Z,11.40
2019-04-05T01:20:14.232Z,10.17
2019-04-05T01:22:45.541Z,11.13
2019-04-05T01:25:15.330Z,11.30
2019-04-05T01:27:45.028Z,11.47
2019-04-05T01:30:16.567Z,11.03
2019-04-05T01:32:46.477Z,10.67
2019-04-05T01:35:17.393Z,10.20
2019-04-05T01:37:47.708Z,10.00
2019-04-05T01:40:17.783Z,11.37
2019-04-05T01:42:48.666Z,11.97
2019-04-05T01:45:18.233Z,11.50
2019-04-05T01:47:47.831Z,13.60
2019-04-05T01:50:17.700Z,12.10
2019-04-05T01:52:48.308Z,12.97
2019-04-05T01:55:17.959Z,11.57
2019-04-05T01:57:47.533Z,13.27
2019-04-05T02:00:17.994Z,11.23
2019-04-05T02:02:48.099Z,12.30
2019-04-05T02:05:17.908Z,11.13
2019-04-05T02:07:47.544Z,11.67
2019-04-05T02:10:17.187Z,12.30
2019-04-05T02:12:46.762Z,11.80
2019-04-05T02:15:30.836Z,11.57
2019-04-05T02:18:00.470Z,10.83
2019-04-05T02:20:30.620Z,11.23
2019-04-05T02:23:00.504Z,12.37
2019-04-05T02:25:30.267Z,12.10
2019-04-05T02:27:59.844Z,10.67
2019-04-05T02:30:29.580Z,13.67
2019-04-05T02:32:59.209Z,10.87
2019-04-05T02:35:29.133Z,10.67
2019-04-05T02:37:58.850Z,12.30
2019-04-05T02:40:29.271Z,13.97
2019-04-05T02:43:01.803Z,13.03
2019-04-05T02:45:33.476Z,12.47
2019-04-05T02:48:05.897Z,14.93
2019-04-05T02:50:40.049Z,14.70
2019-04-05T02:53:12.173Z,12.93
2019-04-05T02:55:43.828Z,14.33
2019-04-05T02:58:14.633Z,17.60
2019-04-05T03:00:45.191Z,13.53
2019-04-05T03:03:15.491Z,14.87
2019-04-05T03:05:47.147Z,16.43
2019-04-05T03:08:17.931Z,16.13
2019-04-05T03:11:12.908Z,15.23
2019-04-05T03:13:54.507Z,15.73
2019-04-05T03:16:40.382Z,15.40
2019-04-05T03:19:10.193Z,17.00
2019-04-05T03:21:44.633Z,16.17
2019-04-05T03:24:18.138Z,16.17
2019-04-05T03:26:52.405Z,16.03
2019-04-05T03:29:22.205Z,16.43
2019-04-05T03:31:52.932Z,15.80
2019-04-05T03:34:23.679Z,17.50
2019-04-05T03:36:53.734Z,17.40
2019-04-05T03:39:24.474Z,15.37
2019-04-05T03:41:54.967Z,17.50
2019-04-05T03:44:24.551Z,15.83
2019-04-05T03:46:57.494Z,16.87
2019-04-05T03:49:26.763Z,16.40
2019-04-05T03:51:56.644Z,16.10
2019-04-05T03:54:26.454Z,15.67
2019-04-05T03:56:56.280Z,16.17
2019-04-05T03:59:26.250Z,17.90
2019-04-05T04:01:56.024Z,16.10
2019-04-05T04:04:25.897Z,16.03
2019-04-05T04:06:55.991Z,14.93
2019-04-05T04:09:25.701Z,14.80
2019-04-05T04:11:55.505Z,15.23
2019-04-05T04:14:25.383Z,15.33
2019-04-05T04:17:11.022Z,15.53
2019-04-05T04:19:27.133Z,15.27
2019-04-05T04:22:17.694Z,14.97
2019-04-05T04:24:47.585Z,15.53
2019-04-05T04:27:17.727Z,16.47
2019-04-05T04:29:47.281Z,16.63
2019-04-05T04:32:17.548Z,14.57
2019-04-05T04:34:47.336Z,18.27
2019-04-05T04:37:17.202Z,19.57
2019-04-05T04:39:46.893Z,15.73
2019-04-05T04:42:16.919Z,17.13
2019-04-05T04:44:46.613Z,14.20
2019-04-05T04:47:26.206Z,16.90
2019-04-05T04:49:49.095Z,16.10
2019-04-05T04:52:18.891Z,16.10
2019-04-05T04:54:48.596Z,16.27
2019-04-05T04:57:18.495Z,15.37
2019-04-05T04:59:48.034Z,15.97
2019-04-05T05:02:18.048Z,16.80
2019-04-05T05:04:48.271Z,15.93
2019-04-05T05:07:18.142Z,15.70
2019-04-05T05:09:49.581Z,13.97
2019-04-05T05:12:19.223Z,15.53
2019-04-05T05:14:49.471Z,15.80
2019-04-05T05:17:19.510Z,17.97
2019-04-05T05:19:49.195Z,14.67
2019-04-05T05:22:18.970Z,16.67
2019-04-05T05:24:48.717Z,16.97
2019-04-05T05:27:18.718Z,16.40
2019-04-05T05:29:48.714Z,17.13
2019-04-05T05:32:18.614Z,17.83
2019-04-05T05:35:01.108Z,15.20
2019-04-05T05:37:20.820Z,14.87
2019-04-05T05:39:50.374Z,17.27
2019-04-05T05:42:20.187Z,27.43
2019-04-05T05:44:49.715Z,17.50
2019-04-05T05:47:19.245Z,16.77
2019-04-05T05:49:50.477Z,19.47
2019-04-05T05:52:21.057Z,19.03
2019-04-05T05:54:50.945Z,20.47
2019-04-05T05:57:20.470Z,20.10
2019-04-05T05:59:50.090Z,20.13
2019-04-05T06:02:19.642Z,18.87
2019-04-05T06:04:49.207Z,21.13
2019-04-05T06:07:20.218Z,21.37
2019-04-05T06:09:49.877Z,21.23
2019-04-05T06:12:19.460Z,22.47
2019-04-05T06:14:49.032Z,20.97
2019-04-05T06:17:18.632Z,22.73
2019-04-05T06:19:49.810Z,20.73
2019-04-05T06:22:19.366Z,22.57
2019-04-05T06:24:48.913Z,25.63
2019-04-05T06:27:18.482Z,21.27
2019-04-05T06:29:48.109Z,22.40
2019-04-05T06:32:17.714Z,22.73
2019-04-05T06:34:47.237Z,24.60
2019-04-05T06:37:16.778Z,20.80
2019-04-05T06:39:46.342Z,21.40
2019-04-05T06:42:15.902Z,22.13
2019-04-05T06:44:45.476Z,22.63
2019-04-05T06:47:15.148Z,24.90
2019-04-05T06:49:44.727Z,25.37
2019-04-05T06:52:14.301Z,22.23
2019-04-05T06:54:43.860Z,23.97
2019-04-05T06:57:13.415Z,22.57
2019-04-05T06:59:42.969Z,21.60
2019-04-05T07:02:12.486Z,23.63
2019-04-05T07:04:42.025Z,23.53
2019-04-05T07:07:12.091Z,23.33
2019-04-05T07:09:41.632Z,22.07
2019-04-05T07:12:11.163Z,24.17
2019-04-05T07:14:40.768Z,22.70
2019-04-05T07:17:10.357Z,21.37
2019-04-05T07:19:39.880Z,21.23
2019-04-05T07:22:09.445Z,20.60
2019-04-05T07:24:38.970Z,21.13
2019-04-05T07:27:08.534Z,21.30
2019-04-05T07:29:38.081Z,22.93
2019-04-05T07:32:07.604Z,22.77
2019-04-05T07:34:37.192Z,23.53
2019-04-05T07:37:06.710Z,22.33
2019-04-05T07:39:36.243Z,19.73
2019-04-05T07:42:05.945Z,22.03
2019-04-05T07:44:35.500Z,22.43
2019-04-05T07:47:05.048Z,19.93
2019-04-05T07:49:34.626Z,19.17
2019-04-05T07:52:04.157Z,20.53
2019-04-05T07:54:33.698Z,19.20
2019-04-05T07:57:03.353Z,18.83
2019-04-05T07:59:33.236Z,18.77
2019-04-05T08:02:02.740Z,18.40
2019-04-05T08:04:32.283Z,18.97
2019-04-05T08:07:04.360Z,17.53
2019-04-05T08:09:37.040Z,19.10
2019-04-05T08:12:08.026Z,19.93
2019-04-05T08:14:39.881Z,17.47
2019-04-05T08:17:09.702Z,19.10
2019-04-05T08:19:39.258Z,18.07
2019-04-05T08:22:08.770Z,19.97
2019-04-05T08:24:38.354Z,15.53
2019-04-05T08:27:07.884Z,18.23
2019-04-05T08:29:37.428Z,17.70
2019-04-05T08:32:14.506Z,16.30
2019-04-05T08:34:38.337Z,17.10
2019-04-05T08:37:07.906Z,17.07
2019-04-05T08:39:37.460Z,17.97
2019-04-05T08:42:07.004Z,17.03
2019-04-05T08:44:36.554Z,18.50
2019-04-05T08:47:06.159Z,18.57
2019-04-05T08:49:35.785Z,18.43
2019-04-05T08:52:05.400Z,18.63
2019-04-05T08:54:36.756Z,20.80
2019-04-05T08:57:06.525Z,18.37
2019-04-05T08:59:36.086Z,17.87
2019-04-05T09:02:05.833Z,18.43
2019-04-05T09:04:35.382Z,17.60
2019-04-05T09:07:05.010Z,17.47
2019-04-05T09:09:34.567Z,17.97
2019-04-05T09:12:04.209Z,17.57
2019-04-05T09:14:33.755Z,18.30
2019-04-05T09:17:03.385Z,18.63
2019-04-05T09:19:33.179Z,16.63
2019-04-05T09:22:02.726Z,19.00
2019-04-05T09:24:32.257Z,18.73
2019-04-05T09:27:01.798Z,19.27
2019-04-05T09:29:31.362Z,19.33
2019-04-05T09:32:01.344Z,19.47
2019-04-05T09:34:30.880Z,18.30
2019-04-05T09:37:00.453Z,20.40
2019-04-05T09:39:30.003Z,19.43
2019-04-05T09:41:59.561Z,19.63
2019-04-05T09:44:29.175Z,19.53
2019-04-05T09:46:58.717Z,20.37
2019-04-05T09:49:36.668Z,18.67
2019-04-05T09:51:59.841Z,17.47
2019-04-05T09:54:29.376Z,19.30
2019-04-05T09:56:58.912Z,19.20
2019-04-05T09:59:28.486Z,18.27
2019-04-05T10:01:58.040Z,19.27
2019-04-05T10:04:27.578Z,17.40
2019-04-05T10:06:57.201Z,18.37
2019-04-05T10:09:26.751Z,19.00
2019-04-05T10:11:56.292Z,18.30
2019-04-05T10:14:25.833Z,21.77
2019-04-05T10:16:55.446Z,18.17
2019-04-05T10:19:24.993Z,17.80
2019-04-05T10:21:54.569Z,19.23
2019-04-05T10:24:24.140Z,19.27
2019-04-05T10:26:53.746Z,21.73
2019-04-05T10:29:23.323Z,20.20
2019-04-05T10:31:52.913Z,18.50
2019-04-05T10:34:22.458Z,20.70
2019-04-05T10:36:52.013Z,19.80
2019-04-05T10:39:21.605Z,19.80
2019-04-05T10:42:02.654Z,20.57
2019-04-05T10:44:22.674Z,21.17
2019-04-05T10:46:52.335Z,21.93
2019-04-05T10:49:21.893Z,21.20
2019-04-05T10:51:51.528Z,19.53
2019-04-05T10:54:21.107Z,19.87
2019-04-05T10:56:50.765Z,20.33
2019-04-05T10:59:23.989Z,24.13
2019-04-05T11:01:53.536Z,20.60
2019-04-05T11:04:23.080Z,20.43
2019-04-05T11:06:52.631Z,19.07
2019-04-05T11:09:22.168Z,18.33
2019-04-05T11:11:51.777Z,18.70
2019-04-05T11:14:21.394Z,18.43
2019-04-05T11:16:58.299Z,17.87
2019-04-05T11:19:22.221Z,20.20
2019-04-05T11:21:52.430Z,20.87
2019-04-05T11:24:22.439Z,18.53
2019-04-05T11:26:52.083Z,17.30
2019-04-05T11:29:21.638Z,18.57
2019-04-05T11:31:56.811Z,18.87
2019-04-05T11:34:22.521Z,15.93
2019-04-05T11:36:52.771Z,16.03
2019-04-05T11:39:22.791Z,15.70
2019-04-05T11:41:54.090Z,15.00
2019-04-05T11:44:25.705Z,13.60
2019-04-05T11:46:56.652Z,14.73
2019-04-05T11:49:26.366Z,13.67
2019-04-05T11:51:56.230Z,13.80
2019-04-05T11:54:25.759Z,14.00
2019-04-05T11:56:55.303Z,15.30
2019-04-05T11:59:25.207Z,14.30
2019-04-05T12:01:58.821Z,13.70
2019-04-05T12:04:28.356Z,13.13
2019-04-05T12:06:57.906Z,15.70
2019-04-05T12:09:27.435Z,14.30
2019-04-05T12:11:56.978Z,12.80
2019-04-05T12:14:30.526Z,14.60
2019-04-05T12:16:57.945Z,14.23
2019-04-05T12:19:27.518Z,14.47
2019-04-05T12:21:57.116Z,12.83
2019-04-05T12:24:26.661Z,14.87
2019-04-05T12:26:56.299Z,14.60
2019-04-05T12:29:25.828Z,14.13
2019-04-05T12:31:56.214Z,14.43
2019-04-05T12:34:28.504Z,16.63
2019-04-05T12:36:57.075Z,15.57
2019-04-05T12:39:26.600Z,15.20
2019-04-05T12:41:56.292Z,14.60
2019-04-05T12:44:25.848Z,14.00
2019-04-05T12:46:55.508Z,14.57
2019-04-05T12:49:25.044Z,13.60
2019-04-05T12:51:54.864Z,15.10
2019-04-05T12:54:24.684Z,14.40
2019-04-05T12:56:56.309Z,14.90
2019-04-05T12:59:26.007Z,15.03
2019-04-05T13:01:55.501Z,15.10
2019-04-05T13:04:25.414Z,17.57
2019-04-05T13:06:55.007Z,14.80
2019-04-05T13:09:24.838Z,14.67
2019-04-05T13:11:57.318Z,16.00
2019-04-05T13:14:26.945Z,15.00
2019-04-05T13:16:56.757Z,15.00
2019-04-05T13:19:26.310Z,17.07
2019-04-05T13:21:55.875Z,14.30
2019-04-05T13:24:25.418Z,15.30
2019-04-05T13:26:55.368Z,15.43
2019-04-05T13:29:24.895Z,16.53
2019-04-05T13:31:54.431Z,16.97
2019-04-05T13:34:25.874Z,16.63
2019-04-05T13:36:55.477Z,17.97
2019-04-05T13:39:25.053Z,21.30
2019-04-05T13:41:54.678Z,22.63
2019-04-05T13:44:24.257Z,18.83
2019-04-05T13:46:53.852Z,16.60
2019-04-05T13:49:23.787Z,20.00
2019-04-05T13:51:53.315Z,18.07
2019-04-05T13:54:22.899Z,19.67
2019-04-05T13:56:52.499Z,17.57
2019-04-05T13:59:22.111Z,18.93
2019-04-05T14:01:51.684Z,21.23
2019-04-05T14:04:21.980Z,20.23
2019-04-05T14:06:53.631Z,17.63
2019-04-05T14:09:22.998Z,19.33
2019-04-05T14:11:52.546Z,19.83
2019-04-05T14:14:22.140Z,18.53
2019-04-05T14:16:53.950Z,19.30
2019-04-05T14:19:22.990Z,19.23
2019-04-05T14:21:53.686Z,21.23
2019-04-05T14:24:23.904Z,18.53
2019-04-05T14:26:53.544Z,20.40
2019-04-05T14:29:23.166Z,21.43
2019-04-05T14:31:52.712Z,17.90
2019-04-05T14:34:23.704Z,19.73
2019-04-05T14:36:53.550Z,18.37
2019-04-05T14:39:23.255Z,19.03
2019-04-05T14:41:52.831Z,19.70
2019-04-05T14:44:22.545Z,19.33
2019-04-05T14:46:52.095Z,19.10
2019-04-05T14:49:21.729Z,19.13
2019-04-05T14:51:53.889Z,18.20
2019-04-05T14:54:22.606Z,18.73
2019-04-05T14:56:52.129Z,16.50
2019-04-05T14:59:22.428Z,19.53
2019-04-05T15:01:51.953Z,18.50
2019-04-05T15:04:21.513Z,20.33
2019-04-05T15:06:51.742Z,20.87
2019-04-05T15:09:24.816Z,19.47
2019-04-05T15:11:52.601Z,18.97
2019-04-05T15:14:22.143Z,20.83
2019-04-05T15:16:51.789Z,22.40
2019-04-05T15:19:21.442Z,21.23
2019-04-05T15:21:51.000Z,21.00
2019-04-05T15:24:20.537Z,20.57
2019-04-05T15:26:51.507Z,21.90
2019-04-05T15:29:21.395Z,20.70
2019-04-05T15:31:50.944Z,24.00
2019-04-05T15:34:20.464Z,22.73
2019-04-05T15:36:50.035Z,21.43
2019-04-05T15:39:19.833Z,21.70
2019-04-05T15:41:49.393Z,24.20
2019-04-05T15:44:21.271Z,23.27
2019-04-05T15:46:51.832Z,20.50
2019-04-05T15:49:21.655Z,27.53
2019-04-05T15:51:54.377Z,23.63
2019-04-05T15:54:23.104Z,23.73
2019-04-05T15:56:52.661Z,24.43
2019-04-05T15:59:22.460Z,24.27
2019-04-05T16:01:52.023Z,26.63
2019-04-05T16:04:22.240Z,23.10
2019-04-05T16:06:51.802Z,26.60
2019-04-05T16:09:22.609Z,24.67
2019-04-05T16:11:52.524Z,25.00
2019-04-05T16:14:22.097Z,21.17
2019-04-05T16:16:56.450Z,24.00
2019-04-05T16:19:25.980Z,28.00
2019-04-05T16:21:55.535Z,23.53
2019-04-05T16:24:25.950Z,24.53
2019-04-05T16:26:55.537Z,20.10
2019-04-05T16:29:25.987Z,22.67
2019-04-05T16:31:55.863Z,29.17
2019-04-05T16:34:25.437Z,25.20
2019-04-05T16:36:54.983Z,25.07
2019-04-05T16:39:25.113Z,27.93
2019-04-05T16:41:54.832Z,26.03
2019-04-05T16:44:24.405Z,24.97
2019-04-05T16:46:54.506Z,23.63
2019-04-05T16:49:24.312Z,25.23
2019-04-05T16:51:53.867Z,28.50
2019-04-05T16:54:23.394Z,23.60
2019-04-05T16:56:53.129Z,30.07
2019-04-05T16:59:22.747Z,25.30
2019-04-05T17:01:52.284Z,25.57
2019-04-05T17:04:21.812Z,25.77
2019-04-05T17:06:51.351Z,27.07
2019-04-05T17:09:20.913Z,25.80
2019-04-05T17:11:50.573Z,27.27
2019-04-05T17:14:23.087Z,24.07
2019-04-05T17:16:51.395Z,24.87
2019-04-05T17:19:20.957Z,27.20
2019-04-05T17:21:50.611Z,24.57
2019-04-05T17:24:20.141Z,22.13
2019-04-05T17:26:49.691Z,25.37
2019-04-05T17:29:19.247Z,24.13
2019-04-05T17:31:48.899Z,24.43
2019-04-05T17:34:18.447Z,23.23
2019-04-05T17:36:48.166Z,24.10
2019-04-05T17:39:17.742Z,24.50
2019-04-05T17:41:47.387Z,24.00
2019-04-05T17:44:16.943Z,22.83
2019-04-05T17:46:46.560Z,26.13
2019-04-05T17:49:16.130Z,23.57
2019-04-05T17:51:46.644Z,26.33
2019-04-05T17:54:16.160Z,27.77
2019-04-05T17:56:46.271Z,26.30
2019-04-05T17:59:16.557Z,24.83
2019-04-05T18:01:46.308Z,26.73
2019-04-05T18:04:15.829Z,24.87
2019-04-05T18:06:45.385Z,25.37
2019-04-05T18:09:14.996Z,29.37
2019-04-05T18:11:44.655Z,25.87
2019-04-05T18:14:14.177Z,26.37
2019-04-05T18:16:43.982Z,26.97
2019-04-05T18:19:13.833Z,28.10
2019-04-05T18:21:43.386Z,29.07
2019-04-05T18:24:12.928Z,29.27
2019-04-05T18:26:42.751Z,28.57
2019-04-05T18:29:12.372Z,24.77
2019-04-05T18:31:41.906Z,28.70
2019-04-05T18:34:11.628Z,25.20
2019-04-05T18:36:41.201Z,26.97
2019-04-05T18:39:11.360Z,28.90
2019-04-05T18:41:43.641Z,26.60
2019-04-05T18:44:13.218Z,30.40
2019-04-05T18:46:42.787Z,26.87
2019-04-05T18:49:13.303Z,27.40
2019-04-05T18:51:43.250Z,26.00
2019-04-05T18:54:12.788Z,27.23
2019-04-05T18:56:42.329Z,29.93
2019-04-05T18:59:11.894Z,26.23
2019-04-05T19:01:41.444Z,29.90
2019-04-05T19:04:11.281Z,26.80
2019-04-05T19:06:40.968Z,27.20
2019-04-05T19:09:12.091Z,29.60
2019-04-05T19:11:42.024Z,26.73
2019-04-05T19:14:11.807Z,27.27
2019-04-05T19:16:41.351Z,31.20
2019-04-05T19:19:10.911Z,26.93
2019-04-05T19:21:40.477Z,31.20
2019-04-05T19:24:10.090Z,27.33
2019-04-05T19:26:39.790Z,29.47
2019-04-05T19:29:09.542Z,30.23
2019-04-05T19:49:20.135Z,33.40
2019-04-05T19:51:50.006Z,30.13
2019-04-05T19:54:20.136Z,29.30
2019-04-05T19:56:50.064Z,32.87
2019-04-05T19:59:19.739Z,34.97
2019-04-05T20:01:49.268Z,31.60
2019-04-05T20:04:19.521Z,30.73
2019-04-05T20:06:58.148Z,36.93
2019-04-05T20:09:21.592Z,27.40
2019-04-05T20:11:51.640Z,33.07
2019-04-05T20:14:21.663Z,31.53
2019-04-05T20:16:53.960Z,35.43
2019-04-05T20:19:23.817Z,34.03
2019-04-05T20:21:53.891Z,36.20
2019-04-05T20:24:23.925Z,35.77
2019-04-05T20:26:54.111Z,33.40
2019-04-05T20:29:24.075Z,36.53
2019-04-05T20:31:54.813Z,34.60
2019-04-05T20:34:24.791Z,38.30
2019-04-05T20:36:54.724Z,35.37
2019-04-05T20:39:25.110Z,35.93
2019-04-05T20:41:55.002Z,38.20
2019-04-05T20:44:24.845Z,43.70
2019-04-05T20:46:54.749Z,45.27
2019-04-05T20:49:24.524Z,41.20
2019-04-05T20:51:54.535Z,41.27
2019-04-05T20:54:25.079Z,41.20
2019-04-05T20:56:54.883Z,38.03
2019-04-05T20:59:24.858Z,41.00
2019-04-05T21:01:55.282Z,37.13
2019-04-05T21:04:25.462Z,43.67
2019-04-05T21:06:55.657Z,35.87
2019-04-05T21:09:25.571Z,42.57
2019-04-05T21:11:55.417Z,40.47
2019-04-05T21:14:26.346Z,42.70
2019-04-05T21:16:56.381Z,38.63
2019-04-05T21:19:26.637Z,41.00
2019-04-05T21:21:56.497Z,40.00
2019-04-05T21:24:35.777Z,40.57
2019-04-05T21:26:58.526Z,39.63
2019-04-05T21:29:28.496Z,37.67
2019-04-05T21:31:58.814Z,40.00
2019-04-05T21:34:28.805Z,41.03
2019-04-05T21:36:59.029Z,41.37
2019-04-05T21:39:28.952Z,43.97
2019-04-05T21:41:59.021Z,41.27
2019-04-05T21:44:29.449Z,44.20
2019-04-05T21:46:59.642Z,42.30
2019-04-05T21:49:29.766Z,45.23
2019-04-05T21:52:00.138Z,46.93
2019-04-05T21:54:30.435Z,45.03
2019-04-05T21:57:00.379Z,47.20
2019-04-05T21:59:30.291Z,54.57
2019-04-05T22:02:02.293Z,45.87
2019-04-05T22:04:31.724Z,43.90
2019-04-05T22:07:05.611Z,51.23
2019-04-05T22:09:35.761Z,46.30
2019-04-05T22:12:09.447Z,46.40
2019-04-05T22:14:38.857Z,49.03
2019-04-05T22:17:09.049Z,47.30
2019-04-05T22:19:39.259Z,46.37
2019-04-05T22:22:10.583Z,50.53
2019-04-05T22:24:42.130Z,47.87
2019-04-05T22:27:12.155Z,47.50
2019-04-05T22:29:42.472Z,49.80
2019-04-05T22:32:12.530Z,53.00
2019-04-05T22:34:42.604Z,49.83
2019-04-05T22:37:12.727Z,52.03
2019-04-05T22:39:45.498Z,47.13
2019-04-05T22:42:16.154Z,49.47
2019-04-05T22:44:45.987Z,50.20
2019-04-05T22:47:16.461Z,43.17
2019-04-05T22:49:46.857Z,47.73
2019-04-05T22:52:17.611Z,52.23
2019-04-05T22:54:48.748Z,53.27
2019-04-05T22:57:20.629Z,51.83
2019-04-05T22:59:50.672Z,51.70
2019-04-05T23:02:21.780Z,51.30
2019-04-05T23:04:51.860Z,47.90
2019-04-05T23:07:22.044Z,47.43
2019-04-05T23:09:53.153Z,54.70
2019-04-05T23:12:23.639Z,51.20
2019-04-05T23:14:53.514Z,55.20
2019-04-05T23:17:23.180Z,59.23
2019-04-05T23:19:52.853Z,51.60
2019-04-05T23:22:22.842Z,54.40
2019-04-05T23:24:52.630Z,55.07
2019-04-05T23:27:22.772Z,52.00
2019-04-05T23:29:53.190Z,51.93
2019-04-05T23:32:23.329Z,49.43
2019-04-05T23:34:53.559Z,50.47
2019-04-05T23:37:23.794Z,48.60
2019-04-05T23:39:53.876Z,57.37
2019-04-05T23:42:23.992Z,52.47
2019-04-05T23:44:55.469Z,49.80
2019-04-05T23:47:25.618Z,52.87
2019-04-05T23:49:55.823Z,55.57
2019-04-05T23:52:26.048Z,60.47
2019-04-05T23:54:56.378Z,54.30
2019-04-05T23:57:26.568Z,51.93
2019-04-05T23:59:56.120Z,51.93
